createdAt,value
2019-05-21T00:00:14.832Z,67.67
2019-05-21T00:02:44.707Z,67.64
2019-05-21T00:05:15.670Z,67.58
2019-05-21T00:07:45.528Z,68.27
2019-05-21T00:10:16.009Z,68.03
2019-05-21T00:12:46.308Z,67.21
2019-05-21T00:15:16.570Z,67.37
2019-05-21T00:17:46.822Z,67.11
2019-05-21T00:20:18.061Z,66.65
2019-05-21T00:22:48.201Z,67.64
2019-05-21T00:25:18.441Z,68.71
2019-05-21T00:27:48.641Z,68.45
2019-05-21T00:30:54.789Z,68.25
2019-05-21T00:34:00.682Z,68.03
2019-05-21T00:37:08.293Z,68.44
2019-05-21T00:40:15.061Z,68.37
2019-05-21T00:42:45.851Z,68.17
2019-05-21T00:45:15.914Z,67.83
2019-05-21T00:47:45.959Z,68.06
2019-05-21T00:50:16.369Z,68.17
2019-05-21T00:52:46.736Z,68.13
2019-05-21T00:55:16.987Z,68.00
2019-05-21T00:57:47.921Z,67.50
2019-05-21T01:00:18.918Z,67.39
2019-05-21T01:02:48.771Z,67.37
2019-05-21T01:05:18.820Z,67.35
2019-05-21T01:07:48.814Z,67.11
2019-05-21T01:10:19.114Z,67.01
2019-05-21T01:12:49.021Z,67.19
2019-05-21T01:15:18.972Z,68.11
2019-05-21T01:17:49.287Z,68.49
2019-05-21T01:20:20.557Z,68.24
2019-05-21T01:22:50.439Z,68.53
2019-05-21T01:25:20.495Z,68.32
2019-05-21T01:27:50.429Z,68.25
2019-05-21T01:30:20.366Z,68.78
2019-05-21T01:32:50.204Z,68.85
2019-05-21T01:35:19.985Z,68.22
2019-05-21T01:37:49.823Z,67.65
2019-05-21T01:40:19.783Z,67.26
2019-05-21T01:42:49.763Z,67.27
2019-05-21T01:45:19.775Z,67.85
2019-05-21T01:47:49.623Z,68.47
2019-05-21T01:50:19.690Z,69.28
2019-05-21T01:52:49.807Z,69.26
2019-05-21T01:55:19.700Z,69.45
2019-05-21T01:57:49.761Z,69.19
2019-05-21T02:00:19.900Z,68.87
2019-05-21T02:02:50.074Z,68.97
2019-05-21T02:05:32.735Z,69.54
2019-05-21T02:07:51.971Z,69.62
2019-05-21T02:10:22.285Z,69.76
2019-05-21T02:12:52.174Z,69.25
2019-05-21T02:15:22.209Z,69.24
2019-05-21T02:17:52.080Z,69.45
2019-05-21T02:20:22.822Z,69.11
2019-05-21T02:22:52.819Z,68.46
2019-05-21T02:25:23.205Z,68.86
2019-05-21T02:27:53.733Z,68.85
2019-05-21T02:30:24.535Z,68.66
2019-05-21T02:32:54.719Z,69.13
2019-05-21T02:35:24.662Z,69.14
2019-05-21T02:37:54.566Z,68.93
2019-05-21T02:40:25.194Z,68.49
2019-05-21T02:42:55.066Z,68.45
2019-05-21T02:45:26.068Z,68.02
2019-05-21T02:47:56.307Z,68.66
2019-05-21T02:50:26.696Z,68.66
2019-05-21T02:52:56.686Z,68.47
2019-05-21T02:55:26.834Z,68.98
2019-05-21T02:57:56.760Z,69.27
2019-05-21T03:00:40.130Z,69.70
2019-05-21T03:03:11.054Z,69.80
2019-05-21T03:05:41.028Z,69.71
2019-05-21T03:08:11.086Z,69.12
2019-05-21T03:10:41.192Z,69.56
2019-05-21T03:13:11.083Z,69.50
2019-05-21T03:15:41.039Z,69.71
2019-05-21T03:18:10.954Z,69.76
2019-05-21T03:20:40.930Z,69.23
2019-05-21T03:23:12.663Z,69.10
2019-05-21T03:25:42.517Z,69.01
2019-05-21T03:28:12.647Z,69.44
2019-05-21T03:30:42.679Z,69.57
2019-05-21T03:33:12.701Z,69.44
2019-05-21T03:35:42.639Z,69.23
2019-05-21T03:38:12.546Z,69.08
2019-05-21T03:40:42.492Z,69.40
2019-05-21T03:43:12.455Z,69.50
2019-05-21T03:45:42.764Z,69.95
2019-05-21T03:48:12.676Z,70.15
2019-05-21T03:50:42.544Z,70.02
2019-05-21T03:53:12.584Z,70.20
2019-05-21T03:55:42.785Z,69.94
2019-05-21T03:58:14.384Z,70.14
2019-05-21T04:00:44.280Z,69.95
2019-05-21T04:03:14.209Z,69.93
2019-05-21T04:05:44.167Z,70.19
2019-05-21T04:08:14.226Z,70.43
2019-05-21T04:10:44.171Z,70.49
2019-05-21T04:13:14.309Z,70.46
2019-05-21T04:15:51.314Z,70.32
2019-05-21T04:18:26.392Z,70.49
2019-05-21T04:20:56.240Z,70.43
2019-05-21T04:23:26.031Z,70.06
2019-05-21T04:25:55.992Z,69.82
2019-05-21T04:28:25.828Z,69.47
2019-05-21T04:30:56.157Z,69.41
2019-05-21T04:33:27.273Z,69.81
2019-05-21T04:35:57.094Z,70.20
2019-05-21T04:38:26.954Z,69.99
2019-05-21T04:40:57.151Z,70.30
2019-05-21T04:43:27.153Z,70.41
2019-05-21T04:45:57.236Z,70.27
2019-05-21T04:48:28.160Z,69.85
2019-05-21T04:50:58.026Z,70.08
2019-05-21T04:53:27.838Z,69.94
2019-05-21T04:55:58.137Z,70.26
2019-05-21T04:58:28.376Z,70.77
2019-05-21T05:00:58.293Z,70.50
2019-05-21T05:03:28.255Z,70.12
2019-05-21T05:05:58.321Z,70.56
2019-05-21T05:08:28.610Z,70.35
2019-05-21T05:10:58.610Z,70.32
2019-05-21T05:13:28.572Z,70.38
2019-05-21T05:15:58.486Z,70.44
2019-05-21T05:18:28.373Z,70.43
2019-05-21T05:20:58.192Z,70.30
2019-05-21T05:23:28.486Z,70.47
2019-05-21T05:25:59.759Z,70.06
2019-05-21T05:28:29.731Z,70.22
2019-05-21T05:31:01.172Z,70.01
2019-05-21T05:33:31.147Z,70.47
2019-05-21T05:36:01.367Z,70.58
2019-05-21T05:38:31.335Z,71.01
2019-05-21T05:41:01.629Z,71.29
2019-05-21T05:43:31.566Z,71.33
2019-05-21T05:46:01.901Z,71.04
2019-05-21T05:48:33.334Z,70.90
2019-05-21T05:51:05.188Z,70.78
2019-05-21T05:53:54.357Z,70.60
2019-05-21T05:56:24.370Z,70.91
2019-05-21T05:58:54.657Z,70.76
2019-05-21T06:01:25.161Z,70.94
2019-05-21T06:03:55.297Z,70.58
2019-05-21T06:06:25.196Z,70.92
2019-05-21T06:08:55.177Z,71.11
2019-05-21T06:11:25.495Z,71.26
2019-05-21T06:13:55.544Z,71.44
2019-05-21T06:16:25.435Z,72.06
2019-05-21T06:18:55.625Z,71.74
2019-05-21T06:21:25.841Z,71.53
2019-05-21T06:23:55.763Z,71.34
2019-05-21T06:26:26.090Z,71.16
2019-05-21T06:28:55.908Z,71.64
2019-05-21T06:31:25.885Z,71.15
2019-05-21T06:33:55.925Z,70.64
2019-05-21T06:36:26.438Z,70.86
2019-05-21T06:38:56.501Z,71.03
2019-05-21T06:41:26.665Z,71.06
2019-05-21T06:43:56.868Z,71.94
2019-05-21T06:46:26.805Z,72.23
2019-05-21T06:48:57.001Z,71.81
2019-05-21T06:51:27.329Z,71.78
2019-05-21T06:53:57.272Z,72.19
2019-05-21T06:56:27.206Z,72.24
2019-05-21T06:58:57.167Z,72.64
2019-05-21T07:01:29.218Z,73.05
2019-05-21T07:03:58.974Z,72.73
2019-05-21T07:06:29.138Z,72.78
2019-05-21T07:08:59.465Z,73.12
2019-05-21T07:11:29.491Z,73.09
2019-05-21T07:13:59.357Z,72.47
2019-05-21T07:16:30.194Z,73.11
2019-05-21T07:19:00.027Z,72.66
2019-05-21T07:21:30.365Z,71.84
2019-05-21T07:24:00.384Z,71.80
2019-05-21T07:26:30.442Z,71.90
2019-05-21T07:29:00.390Z,72.10
2019-05-21T07:31:30.723Z,72.04
2019-05-21T07:34:00.891Z,71.88
2019-05-21T07:36:32.370Z,72.48
2019-05-21T07:39:02.159Z,72.34
2019-05-21T07:41:33.194Z,71.92
2019-05-21T07:44:03.711Z,72.65
2019-05-21T07:46:33.830Z,72.47
2019-05-21T07:49:03.782Z,71.92
2019-05-21T07:51:33.596Z,71.72
2019-05-21T07:54:03.448Z,71.76
2019-05-21T07:56:33.313Z,71.79
2019-05-21T07:59:03.589Z,71.74
2019-05-21T08:01:33.858Z,71.96
2019-05-21T08:04:03.786Z,72.32
2019-05-21T08:06:33.771Z,72.52
2019-05-21T08:09:13.488Z,72.23
2019-05-21T08:11:36.602Z,72.42
2019-05-21T08:14:07.244Z,71.84
2019-05-21T08:16:37.344Z,71.78
2019-05-21T08:19:07.217Z,72.25
2019-05-21T08:21:37.013Z,72.56
2019-05-21T08:24:06.990Z,72.30
2019-05-21T08:26:36.955Z,72.17
2019-05-21T08:29:07.447Z,71.86
2019-05-21T08:31:37.400Z,71.29
2019-05-21T08:34:07.631Z,71.13
2019-05-21T08:36:37.508Z,71.07
2019-05-21T08:39:08.126Z,71.10
2019-05-21T08:41:38.287Z,71.64
2019-05-21T08:44:08.315Z,71.57
2019-05-21T08:46:38.652Z,72.07
2019-05-21T08:49:08.675Z,71.90
2019-05-21T08:51:39.837Z,72.07
2019-05-21T08:54:09.991Z,72.13
2019-05-21T08:56:40.247Z,72.08
2019-05-21T08:59:10.512Z,71.72
2019-05-21T09:01:40.363Z,71.84
2019-05-21T09:04:10.606Z,71.44
2019-05-21T09:06:40.915Z,71.21
2019-05-21T09:09:11.014Z,71.34
2019-05-21T09:11:40.954Z,71.89
2019-05-21T09:14:10.870Z,72.32
2019-05-21T09:16:40.801Z,72.43
2019-05-21T09:19:10.709Z,72.10
2019-05-21T09:21:41.388Z,71.91
2019-05-21T09:24:11.881Z,71.51
2019-05-21T09:26:41.841Z,71.45
2019-05-21T09:29:11.916Z,71.74
2019-05-21T09:31:41.866Z,71.57
2019-05-21T09:34:11.769Z,71.41
2019-05-21T09:36:41.651Z,71.26
2019-05-21T09:39:11.776Z,71.27
2019-05-21T09:41:41.650Z,71.33
2019-05-21T09:44:11.592Z,71.20
2019-05-21T09:46:41.567Z,71.27
2019-05-21T09:49:11.401Z,71.28
2019-05-21T09:51:44.234Z,71.64
2019-05-21T09:54:14.194Z,71.28
2019-05-21T09:56:44.045Z,71.17
2019-05-21T09:59:50.533Z,71.92
2019-05-21T10:02:25.577Z,72.09
2019-05-21T10:04:55.821Z,71.95
2019-05-21T10:07:38.919Z,72.22
2019-05-21T10:09:57.302Z,72.33
2019-05-21T10:12:27.522Z,72.62
2019-05-21T10:14:57.329Z,72.59
2019-05-21T10:17:27.514Z,72.53
2019-05-21T10:19:58.973Z,72.11
2019-05-21T10:22:28.963Z,72.15
2019-05-21T10:24:59.080Z,72.38
2019-05-21T10:27:29.018Z,72.78
2019-05-21T10:29:59.140Z,73.02
2019-05-21T10:32:29.220Z,73.02
2019-05-21T10:34:59.254Z,72.44
2019-05-21T10:37:30.809Z,72.13
2019-05-21T10:40:01.275Z,71.82
2019-05-21T10:42:31.223Z,72.06
2019-05-21T10:45:01.230Z,72.22
2019-05-21T10:47:32.483Z,72.50
2019-05-21T10:50:02.924Z,72.47
2019-05-21T10:52:32.972Z,72.15
2019-05-21T10:55:04.539Z,71.94
2019-05-21T10:57:34.496Z,71.80
2019-05-21T11:00:06.537Z,71.87
2019-05-21T11:02:45.893Z,72.11
2019-05-21T11:05:20.107Z,71.98
2019-05-21T11:07:49.952Z,71.69
2019-05-21T11:10:20.251Z,71.66
2019-05-21T11:12:50.165Z,71.75
2019-05-21T11:15:21.133Z,71.74
2019-05-21T11:18:09.067Z,71.58
2019-05-21T11:20:22.981Z,71.33
2019-05-21T11:22:53.252Z,71.68
2019-05-21T11:25:23.281Z,71.72
2019-05-21T11:27:53.153Z,72.09
2019-05-21T11:30:23.324Z,71.99
2019-05-21T11:32:54.417Z,71.74
2019-05-21T11:35:24.496Z,71.92
2019-05-21T11:37:54.362Z,72.23
2019-05-21T11:40:25.763Z,72.43
2019-05-21T11:42:55.647Z,72.42
2019-05-21T11:45:32.136Z,72.30
2019-05-21T11:47:57.382Z,72.32
2019-05-21T11:50:27.271Z,72.22
2019-05-21T11:52:57.367Z,72.41
2019-05-21T11:55:27.383Z,72.29
2019-05-21T11:57:57.987Z,72.42
2019-05-21T12:00:29.125Z,72.42
2019-05-21T12:02:59.185Z,72.08
2019-05-21T12:05:29.298Z,72.28
2019-05-21T12:07:59.441Z,72.34
2019-05-21T12:10:30.660Z,72.29
2019-05-21T12:13:00.730Z,71.99
2019-05-21T12:15:30.727Z,72.55
2019-05-21T12:18:00.608Z,72.51
2019-05-21T12:20:36.866Z,72.05
2019-05-21T12:23:02.152Z,71.92
2019-05-21T12:25:32.032Z,72.25
2019-05-21T12:28:01.810Z,72.49
2019-05-21T12:30:33.074Z,72.40
2019-05-21T12:33:02.982Z,72.49
2019-05-21T12:35:32.820Z,72.60
2019-05-21T12:38:02.767Z,72.77
2019-05-21T12:40:32.684Z,72.54
2019-05-21T12:43:02.949Z,71.80
2019-05-21T12:45:32.965Z,70.97
2019-05-21T12:48:03.193Z,70.61
2019-05-21T12:50:33.468Z,70.53
2019-05-21T12:53:03.695Z,70.57
2019-05-21T12:55:33.648Z,70.74
2019-05-21T12:58:03.640Z,70.54
2019-05-21T13:00:36.652Z,70.14
2019-05-21T13:03:06.569Z,69.93
2019-05-21T13:05:36.479Z,70.11
2019-05-21T13:08:06.750Z,70.42
2019-05-21T13:10:37.644Z,70.75
2019-05-21T13:13:08.219Z,70.82
2019-05-21T13:15:38.086Z,71.15
2019-05-21T13:18:08.582Z,71.55
2019-05-21T13:20:38.491Z,71.49
2019-05-21T13:23:08.735Z,71.84
2019-05-21T13:25:38.564Z,71.96
2019-05-21T13:28:08.514Z,71.84
2019-05-21T13:30:38.467Z,71.99
2019-05-21T13:33:08.456Z,71.80
2019-05-21T13:35:38.370Z,71.72
2019-05-21T13:38:13.161Z,71.48
2019-05-21T13:40:40.423Z,71.42
2019-05-21T13:43:10.240Z,71.74
2019-05-21T13:45:40.207Z,72.11
2019-05-21T13:48:10.271Z,72.40
2019-05-21T13:50:40.895Z,72.19
2019-05-21T13:53:11.009Z,71.99
2019-05-21T13:55:40.844Z,71.84
2019-05-21T13:58:10.796Z,71.81
2019-05-21T14:00:46.780Z,71.83
2019-05-21T14:03:17.950Z,71.81
2019-05-21T14:05:47.878Z,71.79
2019-05-21T14:08:18.010Z,71.75
2019-05-21T14:10:48.098Z,71.90
2019-05-21T14:13:18.182Z,71.87
2019-05-21T14:15:48.500Z,71.90
2019-05-21T14:18:18.535Z,72.10
2019-05-21T14:20:49.048Z,72.11
2019-05-21T14:23:18.860Z,72.10
2019-05-21T14:25:50.900Z,72.36
2019-05-21T14:28:21.364Z,72.55
2019-05-21T14:30:52.178Z,72.63
2019-05-21T14:33:22.247Z,72.87
2019-05-21T14:35:52.164Z,72.82
2019-05-21T14:38:22.112Z,72.86
2019-05-21T14:40:52.131Z,72.62
2019-05-21T14:43:22.084Z,72.73
2019-05-21T14:45:52.439Z,72.58
2019-05-21T14:48:22.809Z,72.41
2019-05-21T14:50:52.814Z,72.27
2019-05-21T14:53:23.047Z,72.10
2019-05-21T14:55:53.230Z,71.91
2019-05-21T14:58:25.824Z,72.23
2019-05-21T15:00:59.801Z,71.95
2019-05-21T15:03:47.475Z,71.65
2019-05-21T15:06:10.342Z,74.08
2019-05-21T15:08:40.347Z,71.53
2019-05-21T15:11:10.454Z,71.86
2019-05-21T15:13:40.712Z,71.88
2019-05-21T15:16:10.787Z,71.96
2019-05-21T15:18:40.767Z,71.69
2019-05-21T15:21:24.644Z,71.41
2019-05-21T15:23:55.951Z,71.42
2019-05-21T15:26:26.052Z,71.20
2019-05-21T15:28:56.582Z,71.17
2019-05-21T15:31:27.100Z,71.08
2019-05-21T15:33:57.018Z,70.84
2019-05-21T15:36:28.317Z,70.78
2019-05-21T15:38:58.623Z,70.67
2019-05-21T15:41:28.940Z,70.37
2019-05-21T15:43:58.971Z,70.47
2019-05-21T15:46:45.483Z,70.24
2019-05-21T15:49:00.593Z,70.09
2019-05-21T15:51:31.064Z,70.08
2019-05-21T15:54:01.490Z,70.14
2019-05-21T15:56:32.035Z,70.13
2019-05-21T15:59:02.683Z,69.88
2019-05-21T16:01:32.907Z,69.91
2019-05-21T16:04:02.880Z,69.83
2019-05-21T16:06:33.046Z,69.70
2019-05-21T16:09:06.172Z,69.71
2019-05-21T16:11:36.082Z,69.80
2019-05-21T16:14:06.285Z,69.80
2019-05-21T16:16:36.481Z,69.51
2019-05-21T16:19:06.875Z,69.33
2019-05-21T16:21:36.661Z,69.19
2019-05-21T16:24:07.394Z,69.34
2019-05-21T16:26:37.705Z,69.42
2019-05-21T16:29:07.903Z,69.47
2019-05-21T16:31:38.060Z,69.74
2019-05-21T16:34:08.186Z,69.80
2019-05-21T16:36:40.027Z,69.68
2019-05-21T16:39:10.710Z,69.49
2019-05-21T16:41:44.553Z,69.32
2019-05-21T16:44:12.984Z,69.20
2019-05-21T16:46:43.144Z,69.06
2019-05-21T16:49:13.437Z,68.87
2019-05-21T16:51:44.086Z,68.87
2019-05-21T16:54:13.955Z,68.77
2019-05-21T16:56:43.940Z,68.65
2019-05-21T16:59:14.006Z,68.44
2019-05-21T17:01:44.746Z,68.46
2019-05-21T17:04:15.585Z,68.27
2019-05-21T17:06:45.905Z,68.54
2019-05-21T17:09:16.350Z,68.56
2019-05-21T17:11:59.103Z,68.53
2019-05-21T17:14:18.974Z,68.36
2019-05-21T17:16:49.067Z,68.27
2019-05-21T17:19:19.041Z,68.31
2019-05-21T17:21:49.819Z,68.57
2019-05-21T17:24:20.141Z,68.59
2019-05-21T17:26:50.042Z,68.63
2019-05-21T17:29:20.196Z,68.80
2019-05-21T17:31:50.260Z,69.11
2019-05-21T17:34:20.553Z,69.38
2019-05-21T17:36:50.567Z,69.66
2019-05-21T17:39:20.973Z,69.92
2019-05-21T17:41:51.807Z,70.07
2019-05-21T17:44:24.922Z,70.09
2019-05-21T17:46:54.962Z,70.07
2019-05-21T17:49:25.205Z,70.15
2019-05-21T17:51:55.270Z,70.07
2019-05-21T17:54:25.235Z,70.00
2019-05-21T17:56:57.058Z,69.95
2019-05-21T17:59:27.369Z,69.84
2019-05-21T18:01:57.384Z,70.15
2019-05-21T18:04:29.404Z,70.24
2019-05-21T18:06:59.816Z,70.27
2019-05-21T18:09:29.786Z,70.24
2019-05-21T18:12:00.252Z,70.16
2019-05-21T18:14:30.805Z,70.31
2019-05-21T18:17:00.765Z,70.37
2019-05-21T18:19:31.442Z,70.26
2019-05-21T18:22:01.861Z,70.15
2019-05-21T18:24:31.741Z,70.50
2019-05-21T18:27:01.777Z,70.63
2019-05-21T18:29:32.229Z,70.54
2019-05-21T18:32:02.239Z,70.55
2019-05-21T18:34:32.828Z,70.51
2019-05-21T18:37:03.270Z,70.47
2019-05-21T18:39:34.430Z,70.63
2019-05-21T18:42:04.985Z,70.66
2019-05-21T18:44:35.225Z,70.88
2019-05-21T18:47:06.419Z,71.05
2019-05-21T18:49:36.688Z,71.13
2019-05-21T18:52:06.893Z,70.97
2019-05-21T18:54:36.906Z,71.00
2019-05-21T18:57:08.706Z,70.87
2019-05-21T18:59:38.668Z,70.82
2019-05-21T19:02:10.232Z,70.82
2019-05-21T19:04:40.917Z,70.63
2019-05-21T19:07:11.460Z,70.35
2019-05-21T19:09:41.453Z,70.27
2019-05-21T19:12:11.492Z,70.43
2019-05-21T19:14:44.916Z,70.51
2019-05-21T19:17:14.903Z,70.57
2019-05-21T19:19:46.133Z,70.44
2019-05-21T19:22:16.255Z,70.33
2019-05-21T19:24:46.306Z,70.35
2019-05-21T19:27:19.269Z,70.31
2019-05-21T19:29:49.559Z,70.28
2019-05-21T19:32:19.581Z,70.17
2019-05-21T19:34:49.543Z,70.02
2019-05-21T19:37:19.507Z,69.94
2019-05-21T19:39:49.576Z,69.90
2019-05-21T19:42:19.694Z,69.94
2019-05-21T19:44:49.700Z,69.98
2019-05-21T19:47:19.622Z,69.83
2019-05-21T19:49:49.593Z,69.76
2019-05-21T19:52:19.961Z,69.89
2019-05-21T19:54:49.973Z,69.93
2019-05-21T19:57:22.255Z,69.92
2019-05-21T19:59:52.405Z,69.91
2019-05-21T20:02:23.691Z,69.95
2019-05-21T20:04:54.733Z,70.11
2019-05-21T20:07:26.198Z,70.24
2019-05-21T20:09:57.153Z,70.23
2019-05-21T20:12:27.737Z,70.12
2019-05-21T20:14:58.133Z,70.09
2019-05-21T20:17:28.534Z,70.37
2019-05-21T20:19:59.147Z,70.15
2019-05-21T20:22:30.653Z,70.11
2019-05-21T20:25:01.261Z,70.03
2019-05-21T20:27:32.367Z,70.12
2019-05-21T20:30:12.279Z,70.00
2019-05-21T20:32:36.627Z,70.09
2019-05-21T20:35:08.208Z,70.35
2019-05-21T20:37:40.376Z,70.19
2019-05-21T20:40:13.703Z,70.24
2019-05-21T20:42:47.379Z,70.27
2019-05-21T20:45:19.195Z,70.19
2019-05-21T20:47:51.102Z,70.29
2019-05-21T20:50:22.687Z,70.19
2019-05-21T20:52:53.738Z,70.28
2019-05-21T20:55:23.872Z,70.29
2019-05-21T20:57:55.517Z,70.45
2019-05-21T21:00:30.307Z,70.49
2019-05-21T21:03:00.640Z,70.37
2019-05-21T21:05:31.056Z,70.27
2019-05-21T21:08:01.388Z,70.11
2019-05-21T21:10:32.016Z,70.12
2019-05-21T21:13:02.445Z,70.06
2019-05-21T21:15:32.664Z,70.15
2019-05-21T21:18:03.552Z,70.04
2019-05-21T21:20:34.218Z,69.93
2019-05-21T21:23:05.117Z,69.91
2019-05-21T21:25:35.590Z,69.82
2019-05-21T21:28:06.350Z,69.80
2019-05-21T21:30:37.377Z,69.82
2019-05-21T21:33:08.496Z,69.84
2019-05-21T21:35:38.588Z,69.98
2019-05-21T21:38:11.490Z,70.03
2019-05-21T21:40:41.638Z,70.16
2019-05-21T21:43:12.273Z,70.34
2019-05-21T21:45:43.044Z,70.34
2019-05-21T21:48:15.002Z,70.01
2019-05-21T21:50:50.908Z,69.86
2019-05-21T21:53:21.458Z,69.93
2019-05-21T21:55:52.601Z,70.07
2019-05-21T21:58:23.062Z,70.02
2019-05-21T22:01:21.823Z,69.95
2019-05-21T22:03:52.581Z,69.97
2019-05-21T22:06:23.795Z,70.04
2019-05-21T22:08:54.670Z,70.12
2019-05-21T22:11:25.085Z,70.09
2019-05-21T22:13:56.210Z,69.91
2019-05-21T22:16:27.446Z,69.98
2019-05-21T22:18:57.498Z,70.19
2019-05-21T22:21:28.013Z,70.23
2019-05-21T22:23:58.400Z,70.09
2019-05-21T22:26:29.380Z,69.89
2019-05-21T22:28:59.559Z,69.97
2019-05-21T22:31:29.593Z,70.05
2019-05-21T22:34:00.059Z,70.10
2019-05-21T22:36:30.582Z,70.18
2019-05-21T22:39:00.487Z,70.14
2019-05-21T22:41:31.993Z,70.09
2019-05-21T22:44:02.515Z,70.08
2019-05-21T22:46:32.946Z,69.92
2019-05-21T22:49:03.681Z,69.58
2019-05-21T22:51:33.870Z,69.61
2019-05-21T22:54:03.786Z,69.74
2019-05-21T22:56:33.641Z,69.76
2019-05-21T22:59:06.109Z,70.02
2019-05-21T23:01:37.600Z,70.26
2019-05-21T23:04:08.200Z,70.18
2019-05-21T23:06:38.259Z,70.03
2019-05-21T23:09:09.086Z,70.25
2019-05-21T23:11:39.036Z,70.13
2019-05-21T23:14:09.023Z,70.19
2019-05-21T23:16:39.306Z,70.14
2019-05-21T23:19:11.597Z,69.94
2019-05-21T23:21:44.288Z,69.85
2019-05-21T23:24:19.020Z,69.66
2019-05-21T23:26:49.251Z,69.65
2019-05-21T23:29:19.602Z,69.61
2019-05-21T23:31:49.782Z,69.97
2019-05-21T23:34:20.709Z,70.07
2019-05-21T23:36:51.462Z,69.97
2019-05-21T23:39:23.211Z,70.08
2019-05-21T23:41:53.517Z,70.03
2019-05-21T23:44:24.148Z,69.95
2019-05-21T23:46:54.478Z,69.93
2019-05-21T23:49:24.314Z,69.81
2019-05-21T23:51:54.536Z,69.72
2019-05-21T23:54:24.602Z,69.84
2019-05-21T23:56:55.645Z,69.82
2019-05-21T23:59:26.207Z,69.74
